X  Cerrar Datos meteorológicos de aviación METAR     EHRD Rotterdam The Hague Airport
Temperatura
28°C Temperatura
15°C Punto de rocío
45% Humedad



Viento
19 KM/H
12 MPH
5 M/S
10 NUDO



110°
ESE
Condiciones actuales

Claro Claro
Presión 1008.81 (hPa) - 29.79 (inHg)
Visibilidad 6 (milla) - 9.7 (km)
Aeropuerto
Código de aeropuerto EHRD

localidad: Rotterdam The Hague Airport
Distancia: 23 (km)

Metar:
EHRD 200955Z AUTO 11010KT 080V150 9999 NCD 28/15 Q1009 NOSIG

Hora: 20-07-2024 11:55 CEST